createdAt,value
2018-03-08T00:00:53.112Z,100.00
2018-03-08T00:03:20.897Z,100.00
2018-03-08T00:05:48.348Z,100.00
2018-03-08T00:08:15.801Z,100.00
2018-03-08T00:10:43.591Z,100.00
2018-03-08T00:13:11.041Z,100.00
2018-03-08T00:15:38.549Z,100.00
2018-03-08T00:18:06.267Z,100.00
2018-03-08T00:20:33.732Z,100.00
2018-03-08T00:23:01.185Z,100.00
2018-03-08T00:25:29.625Z,100.00
2018-03-08T00:27:57.077Z,100.00
2018-03-08T00:30:24.535Z,100.00
2018-03-08T00:32:52.569Z,100.00
2018-03-08T00:35:20.029Z,100.00
2018-03-08T00:37:47.553Z,100.00
2018-03-08T00:40:15.565Z,100.00
2018-03-08T00:42:43.031Z,100.00
2018-03-08T00:45:10.492Z,100.00
2018-03-08T00:47:38.116Z,100.00
2018-03-08T00:50:05.573Z,100.00
2018-03-08T00:52:33.021Z,100.00
2018-03-08T00:55:00.929Z,100.00
2018-03-08T00:57:28.385Z,100.00
2018-03-08T00:59:55.838Z,100.00
2018-03-08T01:02:23.468Z,100.00
2018-03-08T01:04:50.917Z,100.00
2018-03-08T01:07:18.365Z,100.00
2018-03-08T01:09:46.310Z,100.00
2018-03-08T01:12:13.760Z,100.00
2018-03-08T01:14:41.214Z,100.00
2018-03-08T01:17:08.998Z,100.00
2018-03-08T01:19:36.447Z,100.00
2018-03-08T01:22:03.897Z,100.00
2018-03-08T01:24:31.594Z,100.00
2018-03-08T01:26:59.078Z,100.00
2018-03-08T01:29:26.529Z,100.00
2018-03-08T01:31:54.416Z,100.00
2018-03-08T01:34:21.864Z,100.00
2018-03-08T01:36:49.322Z,100.00
2018-03-08T01:39:17.752Z,100.00
2018-03-08T01:41:45.205Z,100.00
2018-03-08T01:44:12.652Z,100.00
2018-03-08T01:46:40.669Z,100.00
2018-03-08T01:49:08.128Z,100.00
2018-03-08T01:51:35.580Z,100.00
2018-03-08T01:54:03.665Z,100.00
2018-03-08T01:56:31.119Z,100.00
2018-03-08T01:58:58.565Z,100.00
2018-03-08T02:01:26.658Z,100.00
2018-03-08T02:03:54.110Z,100.00
2018-03-08T02:06:21.557Z,100.00
2018-03-08T02:08:49.648Z,100.00
2018-03-08T02:11:17.101Z,100.00
2018-03-08T02:13:44.554Z,100.00
2018-03-08T02:16:12.285Z,100.00
2018-03-08T02:18:39.741Z,100.00
2018-03-08T02:21:07.202Z,100.00
2018-03-08T02:23:35.022Z,100.00
2018-03-08T02:26:02.472Z,100.00
2018-03-08T02:28:29.930Z,100.00
2018-03-08T02:30:57.721Z,100.00
2018-03-08T02:33:25.182Z,100.00
2018-03-08T02:35:52.649Z,100.00
2018-03-08T02:38:20.404Z,100.00
2018-03-08T02:40:48.535Z,100.00
2018-03-08T02:43:15.998Z,100.00
2018-03-08T02:45:43.704Z,100.00
2018-03-08T02:48:11.163Z,100.00
2018-03-08T02:50:38.609Z,100.00
2018-03-08T02:53:06.396Z,100.00
2018-03-08T02:55:33.856Z,100.00
2018-03-08T02:58:01.331Z,100.00
2018-03-08T03:00:29.062Z,100.00
2018-03-08T03:02:56.519Z,100.00
2018-03-08T03:05:23.973Z,100.00
2018-03-08T03:07:51.758Z,100.00
2018-03-08T03:10:19.205Z,100.00
2018-03-08T03:12:46.677Z,100.00
2018-03-08T03:15:14.442Z,100.00
2018-03-08T03:17:41.976Z,100.00
2018-03-08T03:20:09.429Z,100.00
2018-03-08T03:22:37.137Z,100.00
2018-03-08T03:25:04.584Z,100.00
2018-03-08T03:27:32.029Z,100.00
2018-03-08T03:29:59.824Z,100.00
2018-03-08T03:32:27.285Z,100.00
2018-03-08T03:34:54.751Z,100.00
2018-03-08T03:37:22.510Z,100.00
2018-03-08T03:39:49.961Z,100.00
2018-03-08T03:42:18.410Z,100.00
2018-03-08T03:44:46.440Z,100.00
2018-03-08T03:47:13.893Z,100.00
2018-03-08T03:49:41.357Z,100.00
2018-03-08T03:52:09.114Z,100.00
2018-03-08T03:54:36.568Z,100.00
2018-03-08T03:57:04.029Z,100.00
2018-03-08T03:59:32.047Z,100.00
2018-03-08T04:01:59.529Z,100.00
2018-03-08T04:04:26.973Z,100.00
2018-03-08T04:06:55.101Z,100.00
2018-03-08T04:09:22.545Z,100.00
2018-03-08T04:11:50.002Z,100.00
2018-03-08T04:14:18.091Z,100.00
2018-03-08T04:16:45.538Z,100.00
2018-03-08T04:19:12.988Z,100.00
2018-03-08T04:21:40.782Z,100.00
2018-03-08T04:24:08.250Z,100.00
2018-03-08T04:26:35.701Z,100.00
2018-03-08T04:29:04.079Z,100.00
2018-03-08T04:31:31.528Z,100.00
2018-03-08T04:33:58.977Z,100.00
2018-03-08T04:36:26.762Z,100.00
2018-03-08T04:38:54.211Z,100.00
2018-03-08T04:41:21.677Z,100.00
2018-03-08T04:43:49.778Z,100.00
2018-03-08T04:46:17.232Z,100.00
2018-03-08T04:48:44.676Z,100.00
2018-03-08T04:51:12.442Z,100.00
2018-03-08T04:53:39.888Z,100.00
2018-03-08T04:56:07.351Z,100.00
2018-03-08T04:58:35.139Z,100.00
2018-03-08T05:01:02.593Z,100.00
2018-03-08T05:03:30.030Z,100.00
2018-03-08T05:05:57.814Z,100.00
2018-03-08T05:08:25.263Z,100.00
2018-03-08T05:10:52.834Z,100.00
2018-03-08T05:13:20.658Z,100.00
2018-03-08T05:15:48.116Z,100.00
2018-03-08T05:18:15.571Z,100.00
2018-03-08T05:20:43.286Z,100.00
2018-03-08T05:23:10.727Z,100.00
2018-03-08T05:25:38.181Z,100.00
2018-03-08T05:28:06.198Z,100.00
2018-03-08T05:30:33.645Z,100.00
2018-03-08T05:33:01.094Z,100.00
2018-03-08T05:35:28.873Z,100.00
2018-03-08T05:37:56.317Z,100.00
2018-03-08T05:40:23.778Z,100.00
2018-03-08T05:42:51.557Z,100.00
2018-03-08T05:45:19.399Z,100.00
2018-03-08T05:47:46.846Z,100.00
2018-03-08T05:50:14.556Z,100.00
2018-03-08T05:52:42.001Z,100.00
2018-03-08T05:55:09.453Z,100.00
2018-03-08T05:57:37.248Z,100.00
2018-03-08T06:00:04.709Z,100.00
2018-03-08T06:02:32.435Z,100.00
2018-03-08T06:05:00.252Z,100.00
2018-03-08T06:07:27.706Z,100.00
2018-03-08T06:09:55.154Z,100.00
2018-03-08T06:12:23.235Z,100.00
2018-03-08T06:14:50.689Z,100.00
2018-03-08T06:17:18.146Z,100.00
2018-03-08T06:19:45.914Z,100.00
2018-03-08T06:22:13.364Z,100.00
2018-03-08T06:24:40.817Z,100.00
2018-03-08T06:27:08.580Z,100.00
2018-03-08T06:29:36.047Z,100.00
2018-03-08T06:32:03.494Z,99.38
2018-03-08T06:34:31.345Z,98.80
2018-03-08T06:36:58.806Z,98.21
2018-03-08T06:39:26.260Z,98.06
2018-03-08T06:41:53.974Z,97.45
2018-03-08T06:44:21.426Z,96.99
2018-03-08T06:46:51.436Z,95.95
2018-03-08T06:49:19.131Z,96.94
2018-03-08T06:51:46.578Z,95.46
2018-03-08T06:54:14.027Z,95.03
2018-03-08T06:56:41.848Z,95.47
2018-03-08T06:59:09.298Z,95.64
2018-03-08T07:01:36.750Z,95.26
2018-03-08T07:04:04.369Z,94.98
2018-03-08T07:06:31.819Z,94.37
2018-03-08T07:08:59.264Z,94.71
2018-03-08T07:11:27.194Z,94.08
2018-03-08T07:13:54.644Z,93.15
2018-03-08T07:16:22.089Z,92.45
2018-03-08T07:18:49.874Z,91.36
2018-03-08T07:21:17.316Z,91.49
2018-03-08T07:23:44.774Z,91.99
2018-03-08T07:26:12.885Z,91.37
2018-03-08T07:28:40.375Z,89.63
2018-03-08T07:31:07.787Z,90.22
2018-03-08T07:33:35.537Z,88.74
2018-03-08T07:36:02.987Z,88.10
2018-03-08T07:38:30.434Z,89.71
2018-03-08T07:40:58.232Z,87.73
2018-03-08T07:43:25.677Z,90.18
2018-03-08T07:45:53.120Z,88.09
2018-03-08T07:48:21.544Z,88.77
2018-03-08T07:50:48.990Z,88.91
2018-03-08T07:53:16.435Z,85.82
2018-03-08T07:55:44.229Z,87.70
2018-03-08T07:58:11.682Z,88.09
2018-03-08T08:00:39.126Z,85.14
2018-03-08T08:03:06.936Z,87.78
2018-03-08T08:05:45.939Z,87.30
2018-03-08T08:08:25.182Z,88.22
2018-03-08T08:10:52.629Z,87.32
2018-03-08T08:13:20.071Z,88.44
2018-03-08T08:15:47.870Z,87.80
2018-03-08T08:18:15.319Z,86.39
2018-03-08T08:20:42.770Z,87.60
2018-03-08T08:23:10.558Z,88.75
2018-03-08T08:25:38.013Z,89.02
2018-03-08T08:28:05.465Z,88.62
2018-03-08T08:30:33.246Z,88.36
2018-03-08T08:33:00.685Z,89.10
2018-03-08T08:35:28.133Z,89.98
2018-03-08T08:37:55.861Z,88.52
2018-03-08T08:40:23.306Z,88.50
2018-03-08T08:42:50.761Z,89.89
2018-03-08T08:45:18.503Z,89.29
2018-03-08T08:47:45.956Z,91.01
2018-03-08T08:50:13.922Z,89.17
2018-03-08T08:52:41.622Z,90.04
2018-03-08T08:55:09.070Z,87.37
2018-03-08T08:57:36.597Z,84.48
2018-03-08T09:00:04.909Z,84.47
2018-03-08T09:02:32.350Z,84.12
2018-03-08T09:04:59.795Z,83.18
2018-03-08T09:07:27.913Z,81.79
2018-03-08T09:09:55.352Z,81.97
2018-03-08T09:12:22.807Z,82.62
2018-03-08T09:14:50.586Z,81.70
2018-03-08T09:17:18.030Z,80.46
2018-03-08T09:19:45.474Z,79.85
2018-03-08T09:22:13.177Z,79.78
2018-03-08T09:24:40.642Z,80.56
2018-03-08T09:27:08.098Z,79.26
2018-03-08T09:29:35.965Z,79.14
2018-03-08T09:32:03.406Z,79.11
2018-03-08T09:34:30.853Z,78.57
2018-03-08T09:36:58.657Z,78.45
2018-03-08T09:39:26.103Z,77.88
2018-03-08T09:41:53.556Z,77.26
2018-03-08T09:44:21.342Z,79.31
2018-03-08T09:46:49.025Z,79.18
2018-03-08T09:49:16.469Z,78.22
2018-03-08T09:51:44.649Z,78.09
2018-03-08T09:54:12.113Z,77.55
2018-03-08T09:56:39.579Z,74.16
2018-03-08T09:59:07.429Z,76.54
2018-03-08T10:01:34.849Z,77.40
2018-03-08T10:04:02.312Z,77.50
2018-03-08T10:06:30.329Z,76.39
2018-03-08T10:08:57.769Z,77.13
2018-03-08T10:11:25.209Z,78.00
2018-03-08T10:13:52.945Z,76.76
2018-03-08T10:16:20.403Z,76.77
2018-03-08T10:18:47.883Z,76.71
2018-03-08T10:21:15.701Z,74.80
2018-03-08T10:23:43.132Z,74.38
2018-03-08T10:26:10.584Z,75.80
2018-03-08T10:28:38.705Z,76.68
2018-03-08T10:31:06.167Z,76.49
2018-03-08T10:33:33.619Z,78.87
2018-03-08T10:36:01.388Z,78.77
2018-03-08T10:38:28.849Z,76.08
2018-03-08T10:40:56.298Z,77.05
2018-03-08T10:43:24.083Z,77.41
2018-03-08T10:45:51.544Z,76.29
2018-03-08T10:48:19.004Z,77.55
2018-03-08T10:50:46.629Z,76.39
2018-03-08T10:53:14.892Z,77.30
2018-03-08T10:55:42.353Z,76.63
2018-03-08T11:04:59.573Z,72.76
2018-03-08T11:07:27.023Z,74.30
2018-03-08T11:09:54.477Z,75.39
2018-03-08T11:12:22.256Z,73.12
2018-03-08T11:14:49.701Z,73.30
2018-03-08T11:17:17.161Z,71.12
2018-03-08T11:19:45.250Z,71.10
2018-03-08T11:22:12.698Z,72.91
2018-03-08T11:24:40.141Z,68.17
2018-03-08T11:27:07.921Z,67.47
2018-03-08T11:29:35.476Z,67.12
2018-03-08T11:32:02.932Z,63.16
2018-03-08T11:34:30.946Z,61.30
2018-03-08T11:36:58.404Z,59.45
2018-03-08T11:39:25.860Z,56.49
2018-03-08T11:41:53.928Z,58.59
2018-03-08T11:44:21.376Z,58.61
2018-03-08T11:46:48.825Z,56.42
2018-03-08T11:49:16.617Z,59.02
2018-03-08T11:51:44.075Z,56.72
2018-03-08T11:54:13.751Z,55.48
2018-03-08T11:56:41.448Z,56.61
2018-03-08T11:59:08.891Z,57.07
2018-03-08T12:01:36.337Z,57.20
2018-03-08T12:04:04.091Z,54.96
2018-03-08T12:06:31.547Z,51.49
2018-03-08T12:08:58.992Z,51.26
2018-03-08T12:11:26.628Z,51.18
2018-03-08T12:13:54.082Z,51.54
2018-03-08T12:16:21.526Z,49.90
2018-03-08T12:18:49.505Z,49.56
2018-03-08T12:21:17.020Z,48.49
2018-03-08T12:23:44.494Z,46.15
2018-03-08T12:26:12.202Z,47.15
2018-03-08T12:28:39.650Z,46.18
2018-03-08T12:31:07.114Z,45.84
2018-03-08T12:33:35.179Z,45.29
2018-03-08T12:36:02.638Z,43.92
2018-03-08T12:38:30.093Z,42.75
2018-03-08T12:40:57.883Z,43.50
2018-03-08T12:43:25.340Z,49.17
2018-03-08T12:45:52.789Z,46.46
2018-03-08T12:48:20.567Z,46.61
2018-03-08T12:50:48.027Z,45.32
2018-03-08T12:53:15.509Z,46.07
2018-03-08T12:55:43.570Z,48.07
2018-03-08T12:58:11.033Z,45.44
2018-03-08T13:00:38.481Z,42.36
2018-03-08T13:03:06.253Z,43.64
2018-03-08T13:05:33.728Z,45.56
2018-03-08T13:08:01.183Z,42.91
2018-03-08T13:10:28.937Z,43.58
2018-03-08T13:12:56.399Z,41.46
2018-03-08T13:15:23.846Z,40.57
2018-03-08T13:17:51.631Z,41.50
2018-03-08T13:20:19.081Z,40.47
2018-03-08T13:22:46.549Z,41.31
2018-03-08T13:25:14.305Z,40.70
2018-03-08T13:27:41.762Z,39.96
2018-03-08T13:30:09.237Z,39.48
2018-03-08T13:32:37.309Z,42.95
2018-03-08T13:35:04.753Z,41.46
2018-03-08T13:37:32.208Z,41.48
2018-03-08T13:40:00.295Z,40.00
2018-03-08T13:42:27.749Z,39.69
2018-03-08T13:44:55.217Z,38.36
2018-03-08T13:47:22.986Z,37.24
2018-03-08T13:49:50.433Z,36.58
2018-03-08T13:52:18.019Z,36.07
2018-03-08T13:54:45.978Z,39.55
2018-03-08T13:57:15.660Z,38.12
2018-03-08T13:59:43.104Z,40.03
2018-03-08T14:02:10.874Z,39.36
2018-03-08T14:04:38.305Z,39.21
2018-03-08T14:07:05.753Z,37.40
2018-03-08T14:09:33.513Z,38.54
2018-03-08T14:12:00.967Z,39.43
2018-03-08T14:14:28.473Z,40.29
2018-03-08T14:16:56.199Z,37.93
2018-03-08T14:19:23.656Z,36.74
2018-03-08T14:21:51.115Z,37.86
2018-03-08T14:24:18.739Z,37.54
2018-03-08T14:26:46.192Z,39.62
2018-03-08T14:29:13.646Z,41.76
2018-03-08T14:31:41.565Z,40.59
2018-03-08T14:34:09.013Z,38.84
2018-03-08T14:36:36.470Z,39.09
2018-03-08T14:39:04.245Z,39.18
2018-03-08T14:41:31.690Z,39.58
2018-03-08T14:43:59.133Z,40.84
2018-03-08T14:46:26.949Z,36.70
2018-03-08T14:48:54.396Z,34.68
2018-03-08T14:51:21.836Z,35.21
2018-03-08T14:53:49.620Z,35.65
2018-03-08T14:56:17.077Z,34.60
2018-03-08T14:58:45.232Z,34.68
2018-03-08T15:01:13.234Z,34.71
2018-03-08T15:03:40.676Z,33.65
2018-03-08T15:06:08.128Z,34.33
2018-03-08T15:08:35.918Z,35.20
2018-03-08T15:11:03.371Z,34.38
2018-03-08T15:13:30.840Z,36.26
2018-03-08T15:15:58.607Z,36.42
2018-03-08T15:18:26.070Z,34.50
2018-03-08T15:20:53.522Z,33.45
2018-03-08T15:23:21.654Z,33.94
2018-03-08T15:25:49.109Z,33.67
2018-03-08T15:28:16.574Z,33.25
2018-03-08T15:30:44.734Z,32.28
2018-03-08T15:33:12.181Z,33.65
2018-03-08T15:35:39.633Z,32.52
2018-03-08T15:38:07.607Z,37.07
2018-03-08T15:40:35.065Z,34.12
2018-03-08T15:43:02.531Z,32.73
2018-03-08T15:45:30.242Z,34.14
2018-03-08T15:47:57.697Z,35.35
2018-03-08T15:50:25.162Z,35.64
2018-03-08T15:52:52.969Z,35.24
2018-03-08T15:55:20.421Z,37.68
2018-03-08T15:57:47.957Z,35.49
2018-03-08T16:00:16.271Z,35.49
2018-03-08T16:02:43.717Z,36.39
2018-03-08T16:05:11.166Z,36.86
2018-03-08T16:07:50.640Z,37.72
2018-03-08T16:10:35.921Z,39.59
2018-03-08T16:13:03.685Z,41.57
2018-03-08T16:15:31.156Z,43.10
2018-03-08T16:17:58.631Z,40.54
2018-03-08T16:20:26.357Z,40.32
2018-03-08T16:22:53.813Z,40.41
2018-03-08T16:25:21.264Z,41.48
2018-03-08T16:27:49.046Z,42.29
2018-03-08T16:30:16.520Z,43.80
2018-03-08T16:32:43.970Z,44.07
2018-03-08T16:35:12.046Z,45.88
2018-03-08T16:37:39.512Z,45.29
2018-03-08T16:40:06.983Z,45.54
2018-03-08T16:42:35.044Z,46.74
2018-03-08T16:45:02.509Z,47.60
2018-03-08T16:47:29.970Z,48.09
2018-03-08T16:49:57.732Z,48.71
2018-03-08T16:52:25.763Z,49.11
2018-03-08T16:54:53.436Z,49.46
2018-03-08T16:57:21.409Z,49.71
2018-03-08T16:59:48.842Z,50.45
2018-03-08T17:02:16.628Z,51.71
2018-03-08T17:04:44.349Z,52.95
2018-03-08T17:07:11.807Z,53.59
2018-03-08T17:09:39.261Z,58.04
2018-03-08T17:12:07.024Z,58.18
2018-03-08T17:14:34.541Z,56.14
2018-03-08T17:17:02.004Z,56.33
2018-03-08T17:19:30.018Z,57.24
2018-03-08T17:21:57.512Z,57.82
2018-03-08T17:24:24.961Z,57.89
2018-03-08T17:26:52.693Z,58.31
2018-03-08T17:29:20.142Z,57.53
2018-03-08T17:31:47.596Z,58.87
2018-03-08T17:34:15.302Z,59.57
2018-03-08T17:36:42.750Z,59.41
2018-03-08T17:39:10.209Z,59.65
2018-03-08T17:41:38.052Z,60.69
2018-03-08T17:44:05.506Z,60.92
2018-03-08T17:46:32.949Z,61.23
2018-03-08T17:49:00.625Z,61.18
2018-03-08T17:51:28.066Z,61.11
2018-03-08T17:53:55.509Z,61.97
2018-03-08T17:56:23.456Z,62.49
2018-03-08T17:58:50.904Z,63.58
2018-03-08T18:01:18.351Z,64.17
2018-03-08T18:03:46.457Z,63.77
2018-03-08T18:06:13.946Z,63.46
2018-03-08T18:08:41.393Z,63.67
2018-03-08T18:11:09.136Z,64.91
2018-03-08T18:13:36.603Z,65.75
2018-03-08T18:16:04.052Z,66.02
2018-03-08T18:18:32.133Z,67.22
2018-03-08T18:20:59.587Z,68.37
2018-03-08T18:23:27.035Z,69.27
2018-03-08T18:25:55.125Z,71.04
2018-03-08T18:28:22.569Z,71.68
2018-03-08T18:30:50.017Z,72.42
2018-03-08T18:33:17.807Z,74.71
2018-03-08T18:35:45.267Z,72.01
2018-03-08T18:38:12.718Z,72.47
2018-03-08T18:40:40.486Z,72.47
2018-03-08T18:43:07.934Z,72.63
2018-03-08T18:45:35.372Z,72.55
2018-03-08T18:48:03.210Z,73.23
2018-03-08T18:50:30.662Z,73.07
2018-03-08T18:52:58.110Z,73.56
2018-03-08T18:55:25.778Z,73.46
2018-03-08T18:57:53.233Z,74.17
2018-03-08T19:00:20.681Z,74.24
2018-03-08T19:02:48.565Z,74.55
2018-03-08T19:05:16.678Z,74.46
2018-03-08T19:07:45.410Z,74.72
2018-03-08T19:10:13.136Z,75.06
2018-03-08T19:12:40.580Z,75.63
2018-03-08T19:15:08.017Z,75.40
2018-03-08T19:17:35.765Z,75.85
2018-03-08T19:20:03.213Z,76.39
2018-03-08T19:22:30.662Z,76.24
2018-03-08T19:24:58.761Z,76.25
2018-03-08T19:27:26.205Z,76.82
2018-03-08T19:29:53.650Z,76.93
2018-03-08T19:32:21.459Z,76.65
2018-03-08T19:34:48.918Z,77.72
2018-03-08T19:37:16.380Z,78.49
2018-03-08T19:39:44.133Z,78.08
2018-03-08T19:42:11.573Z,77.83
2018-03-08T19:44:39.051Z,78.64
2018-03-08T19:47:07.136Z,78.76
2018-03-08T19:49:34.581Z,78.22
2018-03-08T19:52:02.038Z,79.12
2018-03-08T19:54:29.867Z,79.38
2018-03-08T19:56:57.316Z,80.24
2018-03-08T19:59:24.765Z,80.64
2018-03-08T20:01:52.508Z,80.58
2018-03-08T20:04:19.954Z,81.08
2018-03-08T20:06:48.101Z,80.99
2018-03-08T20:09:15.853Z,80.96
2018-03-08T20:11:43.293Z,81.01
2018-03-08T20:14:10.747Z,80.31
2018-03-08T20:16:38.780Z,80.67
2018-03-08T20:19:06.246Z,80.82
2018-03-08T20:21:33.751Z,86.21
2018-03-08T20:24:02.461Z,84.88
2018-03-08T20:26:30.186Z,80.84
2018-03-08T20:28:57.663Z,81.30
2018-03-08T20:31:25.401Z,80.95
2018-03-08T20:33:52.913Z,81.35
2018-03-08T20:36:20.608Z,81.46
2018-03-08T20:38:48.325Z,81.02
2018-03-08T20:41:15.768Z,82.90
2018-03-08T20:43:43.222Z,82.92
2018-03-08T20:46:11.410Z,82.95
2018-03-08T20:48:38.885Z,82.81
2018-03-08T20:51:06.341Z,83.55
2018-03-08T20:53:34.094Z,83.76
2018-03-08T20:56:02.215Z,84.16
2018-03-08T20:58:29.682Z,84.61
2018-03-08T21:00:57.402Z,85.01
2018-03-08T21:03:24.857Z,84.23
2018-03-08T21:05:52.352Z,83.89
2018-03-08T21:08:22.285Z,84.09
2018-03-08T21:10:49.750Z,85.79
2018-03-08T21:13:17.224Z,87.01
2018-03-08T21:15:45.297Z,88.09
2018-03-08T21:18:12.749Z,87.36
2018-03-08T21:20:40.189Z,86.96
2018-03-08T21:23:07.867Z,84.56
2018-03-08T21:25:35.485Z,84.76
2018-03-08T21:28:02.927Z,85.88
2018-03-08T21:30:30.891Z,86.11
2018-03-08T21:32:58.341Z,87.64
2018-03-08T21:35:26.464Z,87.61
2018-03-08T21:37:54.592Z,87.77
2018-03-08T21:40:22.083Z,87.64
2018-03-08T21:42:49.538Z,87.74
2018-03-08T21:45:17.185Z,87.62
2018-03-08T21:47:45.352Z,87.87
2018-03-08T21:50:12.797Z,89.51
2018-03-08T21:52:40.797Z,91.43
2018-03-08T21:55:08.289Z,90.45
2018-03-08T21:57:35.741Z,90.22
2018-03-08T22:00:04.114Z,89.99
2018-03-08T22:02:31.918Z,90.71
2018-03-08T22:04:59.393Z,90.64
2018-03-08T22:07:27.102Z,91.13
2018-03-08T22:09:54.889Z,90.75
2018-03-08T22:12:22.926Z,91.20
2018-03-08T22:14:51.374Z,92.17
2018-03-08T22:17:18.860Z,92.53
2018-03-08T22:19:46.321Z,92.69
2018-03-08T22:22:14.199Z,92.97
2018-03-08T22:24:42.307Z,93.02
2018-03-08T22:27:09.779Z,92.69
2018-03-08T22:29:37.925Z,92.95
2018-03-08T22:32:05.371Z,93.83
2018-03-08T22:34:32.869Z,93.67
2018-03-08T22:37:00.619Z,95.30
2018-03-08T22:39:28.248Z,96.76
2018-03-08T22:41:55.860Z,96.16
2018-03-08T22:44:23.619Z,95.25
2018-03-08T22:46:51.082Z,94.43
2018-03-08T22:49:18.533Z,94.09
2018-03-08T22:51:46.612Z,94.14
2018-03-08T22:54:14.087Z,95.30
2018-03-08T22:56:41.537Z,97.01
2018-03-08T22:59:09.603Z,96.10
2018-03-08T23:02:06.810Z,96.57
2018-03-08T23:04:34.617Z,97.66
2018-03-08T23:07:02.079Z,100.00
2018-03-08T23:09:29.532Z,100.00
2018-03-08T23:11:57.357Z,99.78
2018-03-08T23:14:24.818Z,100.00
2018-03-08T23:16:52.277Z,100.00
2018-03-08T23:19:20.005Z,100.00
2018-03-08T23:21:47.457Z,100.00
2018-03-08T23:24:14.914Z,100.00
2018-03-08T23:26:42.682Z,100.00
2018-03-08T23:29:10.134Z,100.00
2018-03-08T23:31:37.589Z,100.00
2018-03-08T23:34:05.385Z,100.00
2018-03-08T23:36:32.842Z,100.00
2018-03-08T23:39:00.302Z,100.00
2018-03-08T23:41:28.063Z,100.00
2018-03-08T23:43:55.532Z,100.00
2018-03-08T23:46:22.991Z,100.00
2018-03-08T23:48:51.052Z,100.00
2018-03-08T23:51:18.509Z,100.00
2018-03-08T23:53:45.962Z,100.00
2018-03-08T23:56:13.788Z,100.00
2018-03-08T23:58:41.248Z,100.00
